Estación de Polizones INIA

Ultimos registro cada 15 minutos 83
Estación Fecha / Hora Temperatura Humedad Lluvia Velocidad Dirección Radiación Presion
83 Polizones INIA 03-05-2026 20:30 9,1 91 0 0 0 0 997
82 Polizones INIA 03-05-2026 20:15 9,3 90 0 0 0 0 996
81 Polizones INIA 03-05-2026 20:00 10,1 85,9 0 0 0 0 997
80 Polizones INIA 03-05-2026 19:45 10 89,7 0 0,1 8 0 997
79 Polizones INIA 03-05-2026 19:30 10,1 89,2 0 0,1 5 0 997
78 Polizones INIA 03-05-2026 19:15 10,1 90,9 0 0 354 0 997
77 Polizones INIA 03-05-2026 19:00 10,2 91,5 0 0 0 0 996
76 Polizones INIA 03-05-2026 18:45 10,3 92,3 0 0 0 0 996
75 Polizones INIA 03-05-2026 18:30 10,5 92,3 0 0 298 0 996
74 Polizones INIA 03-05-2026 18:15 10,6 90,8 0 0 294 2 996
73 Polizones INIA 03-05-2026 18:00 10,9 88,4 0 1 281 3 996
72 Polizones INIA 03-05-2026 17:45 11,1 86,3 0 1 279 6 996
71 Polizones INIA 03-05-2026 17:30 11,3 88,1 0 0,3 285 6 995
70 Polizones INIA 03-05-2026 17:15 11,4 88,3 0 0,9 291 22 995
69 Polizones INIA 03-05-2026 17:00 11,7 89,6 0 0,3 280 25 995
68 Polizones INIA 03-05-2026 16:45 12,3 87,6 0 0,4 312 23 995
67 Polizones INIA 03-05-2026 16:30 12,6 86,6 0 0 0 43 995
66 Polizones INIA 03-05-2026 16:15 12,9 85,8 0 0 0 154 995
65 Polizones INIA 03-05-2026 16:00 13,4 84,2 0 0 0 210 996
64 Polizones INIA 03-05-2026 15:45 12,4 86,9 0,1 0 0 310 995
63 Polizones INIA 03-05-2026 15:30 11,8 93,6 0 0,2 322 54 995
62 Polizones INIA 03-05-2026 15:15 11,9 93,4 0,1 0 0 60 994
61 Polizones INIA 03-05-2026 15:00 12 91,9 0,2 0 0 61 994
60 Polizones INIA 03-05-2026 14:45 11,8 90,8 0 0,1 355 156 995
59 Polizones INIA 03-05-2026 14:30 11,5 92,3 0 0,7 5 186 994
58 Polizones INIA 03-05-2026 14:15 11,5 93,2 0 0,9 14 189 995
57 Polizones INIA 03-05-2026 14:00 11,5 92,1 0 0,5 353 271 995
56 Polizones INIA 03-05-2026 13:45 11,1 94,3 0 0,7 345 300 995
55 Polizones INIA 03-05-2026 13:30 10,7 94,7 0 0,9 12 294 995
54 Polizones INIA 03-05-2026 13:15 10,2 94,8 0,1 0,2 328 220 995
53 Polizones INIA 03-05-2026 13:00 9,8 95,3 0,1 0,8 315 103 995
52 Polizones INIA 03-05-2026 12:45 9,8 94,6 0 1,7 316 143 995
51 Polizones INIA 03-05-2026 12:30 9,9 94,8 0 2,3 338 268 995
50 Polizones INIA 03-05-2026 12:15 9,7 95,2 0 2,2 341 328 995
49 Polizones INIA 03-05-2026 12:00 9,2 96,3 0 1,7 327 160 995
48 Polizones INIA 03-05-2026 11:45 8,9 96,6 0 1,4 329 136 995
47 Polizones INIA 03-05-2026 11:30 8,7 96,5 0 1,1 313 69 994
46 Polizones INIA 03-05-2026 11:15 8,5 96,3 0,4 1,4 322 73 994
45 Polizones INIA 03-05-2026 11:00 8,4 96,2 0,2 2 323 54 994
44 Polizones INIA 03-05-2026 10:45 8,2 96,2 0,2 2 330 37 994
43 Polizones INIA 03-05-2026 10:30 8,1 96 0 2,1 331 31 994
42 Polizones INIA 03-05-2026 10:15 8 95,8 0 1,4 343 39 994
41 Polizones INIA 03-05-2026 10:00 7,8 96 0 1,3 343 48 994
40 Polizones INIA 03-05-2026 09:45 7,6 95,9 0,1 1,2 344 45 994
39 Polizones INIA 03-05-2026 09:30 7,4 95,7 0 0,9 335 30 994
38 Polizones INIA 03-05-2026 09:15 7,2 95,7 0 1,3 334 26 994
37 Polizones INIA 03-05-2026 09:00 7 95,7 0 1,1 349 17 994
36 Polizones INIA 03-05-2026 08:45 6,8 95,7 0 1,6 346 15 994
35 Polizones INIA 03-05-2026 08:30 6,6 95,9 0 1,2 342 14 994
34 Polizones INIA 03-05-2026 08:15 6,4 95,8 0 0,8 345 9 994
33 Polizones INIA 03-05-2026 08:00 6,1 95,7 0 0,2 332 3 994
32 Polizones INIA 03-05-2026 07:45 6 95,6 0 0,8 349 1 994
31 Polizones INIA 03-05-2026 07:30 6 95,4 0 1 356 0 994
30 Polizones INIA 03-05-2026 07:15 5,9 95,2 0 0,8 339 0 994
29 Polizones INIA 03-05-2026 07:00 5,9 94,8 0 0,8 336 0 994
28 Polizones INIA 03-05-2026 06:45 5,8 94,4 0 1,5 347 0 994
27 Polizones INIA 03-05-2026 06:30 5,8 93,6 0,1 1,7 340 0 994
26 Polizones INIA 03-05-2026 06:15 5,8 93 0 1,2 341 0 994
25 Polizones INIA 03-05-2026 06:00 5,9 92,3 0,1 1,7 346 0 994
24 Polizones INIA 03-05-2026 05:45 6 91,1 0,1 1,2 332 0 994
23 Polizones INIA 03-05-2026 05:30 6 91,4 0 1 331 0 994
22 Polizones INIA 03-05-2026 05:15 5,9 91,9 0,1 1,4 340 0 994
21 Polizones INIA 03-05-2026 05:00 5,9 91,9 0,3 1,4 355 0 994
20 Polizones INIA 03-05-2026 04:45 6 91,6 0,5 1,5 359 0 994
19 Polizones INIA 03-05-2026 04:30 6 90,9 0,3 0,5 356 0 994
18 Polizones INIA 03-05-2026 04:15 6 90,9 0,1 1,5 2 0 995
17 Polizones INIA 03-05-2026 04:00 6,1 90,8 0,1 1,7 360 0 995
16 Polizones INIA 03-05-2026 03:45 6,2 90 0,2 1,8 0 0 995
15 Polizones INIA 03-05-2026 03:30 6,4 88,5 0,2 1,8 6 0 995
14 Polizones INIA 03-05-2026 03:15 6,7 86,1 0,2 1,5 1 0 996
13 Polizones INIA 03-05-2026 03:00 6,7 85,1 0 0,7 280 0 996
12 Polizones INIA 03-05-2026 02:45 6,7 85,4 0 0,6 331 0 996
11 Polizones INIA 03-05-2026 02:30 7,1 83,4 0,2 0 0 0 996
10 Polizones INIA 03-05-2026 02:15 7,2 81,6 0 0 0 0 996
9 Polizones INIA 03-05-2026 02:00 7,4 80,5 0 0 0 0 996
8 Polizones INIA 03-05-2026 01:45 7,4 78 0 0,3 355 0 996
7 Polizones INIA 03-05-2026 01:30 7,3 78,2 0 0,4 354 0 997
6 Polizones INIA 03-05-2026 01:15 7,2 79,7 0 0,1 335 0 997
5 Polizones INIA 03-05-2026 01:00 7,2 79,6 0 0 0 0 997
4 Polizones INIA 03-05-2026 00:45 6,7 80,6 0 0,2 333 0 997
3 Polizones INIA 03-05-2026 00:30 7 84,8 0 0 0 0 997
2 Polizones INIA 03-05-2026 00:15 7,5 78,6 0 0,5 9 0 997
1 Polizones INIA 03-05-2026 00:00 7,7 77,4 0 1,2 354 0 998